Willard, Wisconsin
Current Conditions -  °F | °C
As of 9:54 AM on Friday 24 Oct 2014 (Local Time) from KMFI Reporting Station
Moderate Fog Moderate Fog  
Wind Chill: 43°   Ceiling: 200
Heat Index: 47°   Visibility: 0.25mi
Dew Point: 46°   Wind: 8mph
Humidity: 97%   Direction: 200°SSW
Pressure: 30"   Gusts: NA
Location:  44.73°N, 90.72°W
Report Text: KMFI 241454Z AUTO 20007KT 1/4SM FG VV002 08/08 A3000 RMK AO2 SLP165 T00830078 56002
Loading
Personal Weather Stations






























Interactive Weather Map
Tropical Storm Tracking
New forecast layout! Learn more

10-Day Weather Forecast

Advertisements
Track Severe Weather on mobile